createdAt,value
2019-02-26T00:00:47.372Z,-3.22
2019-02-26T00:02:23.688Z,-3.17
2019-02-26T00:03:58.585Z,-3.13
2019-02-26T00:05:33.045Z,-3.14
2019-02-26T00:07:07.207Z,-3.17
2019-02-26T00:08:40.902Z,-3.19
2019-02-26T00:10:14.577Z,-3.24
2019-02-26T00:11:48.251Z,-3.30
2019-02-26T00:13:23.416Z,-3.33
2019-02-26T00:14:59.582Z,-3.37
2019-02-26T00:16:35.596Z,-3.39
2019-02-26T00:18:11.527Z,-3.47
2019-02-26T00:19:44.465Z,-3.53
2019-02-26T00:21:19.902Z,-3.56
2019-02-26T00:22:55.246Z,-3.56
2019-02-26T00:24:30.790Z,-3.56
2019-02-26T00:26:04.558Z,-3.57
2019-02-26T00:27:39.703Z,-3.55
2019-02-26T00:29:13.386Z,-3.55
2019-02-26T00:30:47.042Z,-3.54
2019-02-26T00:32:21.101Z,-3.50
2019-02-26T00:33:54.821Z,-3.49
2019-02-26T00:35:28.518Z,-3.46
2019-02-26T00:37:03.942Z,-3.47
2019-02-26T00:38:39.854Z,-3.46
2019-02-26T00:40:14.522Z,-3.45
2019-02-26T00:41:51.304Z,-3.50
2019-02-26T00:43:27.381Z,-3.70
2019-02-26T00:45:02.363Z,-3.81
2019-02-26T00:46:36.820Z,-3.92
2019-02-26T00:48:10.331Z,-3.94
2019-02-26T00:49:46.211Z,-4.03
2019-02-26T00:51:20.923Z,-4.00
2019-02-26T00:52:57.054Z,-3.89
2019-02-26T00:54:31.923Z,-3.91
2019-02-26T00:56:07.827Z,-3.93
2019-02-26T00:57:42.984Z,-3.93
2019-02-26T00:59:16.988Z,-3.90
2019-02-26T01:00:50.632Z,-3.85
2019-02-26T01:02:24.304Z,-3.82
2019-02-26T01:04:03.234Z,-3.74
2019-02-26T01:05:38.733Z,-3.84
2019-02-26T01:07:12.228Z,-3.67
2019-02-26T01:08:47.068Z,-3.68
2019-02-26T01:10:21.680Z,-3.69
2019-02-26T01:11:56.181Z,-3.75
2019-02-26T01:13:30.540Z,-3.75
2019-02-26T01:15:12.160Z,-3.81
2019-02-26T01:16:48.283Z,-3.87
2019-02-26T01:18:22.891Z,-3.92
2019-02-26T01:19:58.868Z,-3.83
2019-02-26T01:21:34.164Z,-3.86
2019-02-26T01:23:08.761Z,-3.89
2019-02-26T01:24:42.734Z,-3.88
2019-02-26T01:26:16.460Z,-3.88
2019-02-26T01:27:51.069Z,-3.86
2019-02-26T01:29:27.638Z,-3.91
2019-02-26T01:31:02.627Z,-3.95
2019-02-26T01:32:36.457Z,-3.98
2019-02-26T01:34:11.986Z,-3.95
2019-02-26T01:35:46.403Z,-3.98
2019-02-26T01:37:20.043Z,-4.03
2019-02-26T01:38:53.710Z,-4.05
2019-02-26T01:40:27.694Z,-4.08
2019-02-26T01:42:01.621Z,-4.08
2019-02-26T01:43:35.310Z,-4.07
2019-02-26T01:45:11.242Z,-3.98
2019-02-26T01:46:44.912Z,-3.88
2019-02-26T01:48:19.062Z,-3.87
2019-02-26T01:49:52.800Z,-3.92
2019-02-26T01:51:28.671Z,-4.04
2019-02-26T01:53:02.589Z,-4.17
2019-02-26T01:54:37.345Z,-4.23
2019-02-26T01:56:11.880Z,-4.32
2019-02-26T01:57:45.676Z,-4.36
2019-02-26T01:59:19.326Z,-4.30
2019-02-26T02:00:55.247Z,-4.25
2019-02-26T02:02:30.277Z,-4.24
2019-02-26T02:04:03.942Z,-4.27
2019-02-26T02:05:37.652Z,-4.26
2019-02-26T02:07:11.598Z,-4.22
2019-02-26T02:08:45.802Z,-4.21
2019-02-26T02:10:20.830Z,-4.24
2019-02-26T02:11:57.375Z,-4.23
2019-02-26T02:13:30.552Z,-4.24
2019-02-26T02:15:10.115Z,-4.25
2019-02-26T02:16:44.068Z,-4.24
2019-02-26T02:18:18.087Z,-4.26
2019-02-26T02:19:53.660Z,-4.27
2019-02-26T02:21:30.434Z,-4.32
2019-02-26T02:23:05.354Z,-4.37
2019-02-26T02:24:39.258Z,-4.41
2019-02-26T02:26:15.621Z,-4.40
2019-02-26T02:27:51.801Z,-4.42
2019-02-26T02:29:26.359Z,-4.38
2019-02-26T02:31:00.145Z,-4.34
2019-02-26T02:32:34.558Z,-4.31
2019-02-26T02:34:08.402Z,-4.30
2019-02-26T02:35:42.064Z,-4.34
2019-02-26T02:37:19.173Z,-4.32
2019-02-26T02:38:52.666Z,-4.33
2019-02-26T02:40:26.295Z,-4.40
2019-02-26T02:42:00.008Z,-4.41
2019-02-26T02:43:33.773Z,-4.42
2019-02-26T02:45:11.382Z,-4.41
2019-02-26T02:46:46.693Z,-4.42
2019-02-26T02:48:20.623Z,-4.39
2019-02-26T02:49:54.271Z,-4.36
2019-02-26T02:51:31.168Z,-4.36
2019-02-26T02:53:04.022Z,-4.34
2019-02-26T02:54:38.576Z,-4.32
2019-02-26T02:56:15.336Z,-4.28
2019-02-26T02:57:52.308Z,-4.27
2019-02-26T02:59:24.424Z,-4.28
2019-02-26T03:01:00.308Z,-4.30
2019-02-26T03:02:37.486Z,-4.29
2019-02-26T03:04:09.208Z,-4.36
2019-02-26T03:05:43.832Z,-4.38
2019-02-26T03:07:20.821Z,-4.40
2019-02-26T03:08:53.632Z,-4.43
2019-02-26T03:10:30.806Z,-4.45
2019-02-26T03:12:02.929Z,-4.44
2019-02-26T03:13:36.655Z,-4.46
2019-02-26T03:15:13.146Z,-4.47
2019-02-26T03:16:48.589Z,-4.45
2019-02-26T03:18:22.833Z,-4.46
2019-02-26T03:19:58.702Z,-4.49
2019-02-26T03:21:31.838Z,-4.54
2019-02-26T03:23:07.323Z,-4.59
2019-02-26T03:24:41.381Z,-4.60
2019-02-26T03:26:17.679Z,-4.64
2019-02-26T03:27:51.011Z,-4.67
2019-02-26T03:29:25.057Z,-4.68
2019-02-26T03:30:58.809Z,-4.73
2019-02-26T03:32:36.050Z,-4.72
2019-02-26T03:34:10.458Z,-4.77
2019-02-26T03:35:43.648Z,-4.73
2019-02-26T03:37:17.321Z,-4.70
2019-02-26T03:38:51.618Z,-4.78
2019-02-26T03:40:27.043Z,-4.82
2019-02-26T03:42:02.318Z,-4.78
2019-02-26T03:43:37.107Z,-4.86
2019-02-26T03:45:14.550Z,-4.87
2019-02-26T03:46:48.171Z,-4.94
2019-02-26T03:48:22.187Z,-4.94
2019-02-26T03:49:55.883Z,-4.91
2019-02-26T03:51:29.536Z,-4.87
2019-02-26T03:53:03.177Z,-4.82
2019-02-26T03:54:40.173Z,-4.80
2019-02-26T03:56:14.789Z,-4.77
2019-02-26T03:57:53.283Z,-4.69
2019-02-26T03:59:24.284Z,-4.70
2019-02-26T04:01:01.683Z,-4.78
2019-02-26T04:02:33.919Z,-4.74
2019-02-26T04:04:07.772Z,-4.74
2019-02-26T04:05:41.565Z,-4.84
2019-02-26T04:07:15.586Z,-4.91
2019-02-26T04:08:51.082Z,-4.94
2019-02-26T04:10:24.630Z,-5.00
2019-02-26T04:11:58.393Z,-5.01
2019-02-26T04:13:32.299Z,-5.03
2019-02-26T04:15:14.020Z,-5.05
2019-02-26T04:16:47.675Z,-5.07
2019-02-26T04:18:21.372Z,-5.11
2019-02-26T04:19:55.120Z,-5.13
2019-02-26T04:21:48.161Z,-5.12
2019-02-26T04:23:22.043Z,-5.08
2019-02-26T04:25:01.426Z,-5.10
2019-02-26T04:26:37.192Z,-5.08
2019-02-26T04:28:27.236Z,-5.10
2019-02-26T04:30:19.048Z,-5.12
2019-02-26T04:32:15.034Z,-5.15
2019-02-26T04:34:01.819Z,-5.13
2019-02-26T04:35:37.960Z,-5.10
2019-02-26T04:37:20.194Z,-5.07
2019-02-26T04:39:18.398Z,-5.07
2019-02-26T04:40:55.372Z,-5.02
2019-02-26T04:42:38.408Z,-5.07
2019-02-26T04:44:29.219Z,-4.98
2019-02-26T04:46:25.544Z,-4.97
2019-02-26T04:48:02.258Z,-4.96
2019-02-26T04:49:38.509Z,-4.99
2019-02-26T04:51:11.225Z,-5.06
2019-02-26T04:52:45.380Z,-5.10
2019-02-26T04:54:23.984Z,-5.15
2019-02-26T04:55:54.600Z,-5.18
2019-02-26T04:57:29.884Z,-5.21
2019-02-26T04:59:06.226Z,-5.21
2019-02-26T05:00:39.290Z,-5.21
2019-02-26T05:02:12.951Z,-5.13
2019-02-26T05:03:46.711Z,-5.09
2019-02-26T05:05:22.420Z,-5.11
2019-02-26T05:06:56.183Z,-5.07
2019-02-26T05:08:32.272Z,-5.08
2019-02-26T05:10:06.772Z,-5.08
2019-02-26T05:11:40.863Z,-5.07
2019-02-26T05:13:14.638Z,-5.09
2019-02-26T05:14:48.270Z,-5.10
2019-02-26T05:16:26.021Z,-5.11
2019-02-26T05:17:57.513Z,-5.12
2019-02-26T05:19:31.195Z,-5.17
2019-02-26T05:21:07.496Z,-5.12
2019-02-26T05:22:40.414Z,-5.11
2019-02-26T05:24:15.718Z,-5.11
2019-02-26T05:25:49.932Z,-5.09
2019-02-26T05:27:24.932Z,-5.05
2019-02-26T05:28:59.012Z,-5.05
2019-02-26T05:30:32.918Z,-5.07
2019-02-26T05:32:07.282Z,-5.04
2019-02-26T05:33:41.970Z,-5.09
2019-02-26T05:35:17.960Z,-5.03
2019-02-26T05:36:51.064Z,-5.01
2019-02-26T05:38:26.490Z,-4.98
2019-02-26T05:40:00.383Z,-4.96
2019-02-26T05:41:34.036Z,-4.90
2019-02-26T05:43:08.026Z,-4.88
2019-02-26T05:44:41.693Z,-4.86
2019-02-26T05:46:16.778Z,-4.87
2019-02-26T05:47:51.384Z,-4.82
2019-02-26T05:49:26.386Z,-4.81
2019-02-26T05:51:02.946Z,-4.71
2019-02-26T05:52:35.974Z,-4.68
2019-02-26T05:54:14.271Z,-4.66
2019-02-26T05:55:48.772Z,-4.62
2019-02-26T05:57:27.752Z,-4.61
2019-02-26T05:58:56.481Z,-4.56
2019-02-26T06:00:33.365Z,-4.52
2019-02-26T06:02:06.298Z,-4.50
2019-02-26T06:03:41.039Z,-4.46
2019-02-26T06:05:17.675Z,-4.43
2019-02-26T06:06:53.243Z,-4.38
2019-02-26T06:08:32.335Z,-4.34
2019-02-26T06:10:02.011Z,-4.27
2019-02-26T06:11:38.565Z,-4.16
2019-02-26T06:13:13.535Z,-4.10
2019-02-26T06:14:47.058Z,-4.03
2019-02-26T06:16:21.826Z,-4.00
2019-02-26T06:17:57.013Z,-3.98
2019-02-26T06:19:37.747Z,-3.91
2019-02-26T06:21:13.818Z,-3.93
2019-02-26T06:22:47.328Z,-3.99
2019-02-26T06:24:24.387Z,-3.99
2019-02-26T06:25:59.008Z,-3.89
2019-02-26T06:27:32.921Z,-3.79
2019-02-26T06:29:06.549Z,-3.67
2019-02-26T06:30:40.209Z,-3.58
2019-02-26T06:32:15.851Z,-3.53
2019-02-26T06:33:50.658Z,-3.40
2019-02-26T06:35:24.667Z,-3.25
2019-02-26T06:37:01.308Z,-3.05
2019-02-26T06:38:35.107Z,-2.88
2019-02-26T06:40:11.459Z,-2.77
2019-02-26T06:41:46.729Z,-2.74
2019-02-26T06:43:20.522Z,-2.79
2019-02-26T06:44:54.225Z,-2.66
2019-02-26T06:46:29.346Z,-2.51
2019-02-26T06:48:04.386Z,-2.42
2019-02-26T06:49:38.141Z,-2.36
2019-02-26T06:51:11.796Z,-2.18
2019-02-26T06:52:47.688Z,-2.09
2019-02-26T06:54:22.697Z,-1.90
2019-02-26T06:56:00.766Z,-1.69
2019-02-26T06:57:34.601Z,-1.49
2019-02-26T06:59:12.253Z,-1.33
2019-02-26T07:00:48.091Z,-1.12
2019-02-26T07:02:21.513Z,-0.99
2019-02-26T07:03:56.117Z,-0.84
2019-02-26T07:05:30.943Z,-0.65
2019-02-26T07:07:06.811Z,-0.49
2019-02-26T07:08:42.005Z,-0.33
2019-02-26T07:10:18.431Z,-0.22
2019-02-26T07:11:51.129Z,-0.11
2019-02-26T07:13:25.356Z,0.00
2019-02-26T07:14:59.002Z,0.10
2019-02-26T07:16:32.728Z,0.20
2019-02-26T07:18:07.686Z,0.24
2019-02-26T07:19:43.083Z,0.31
2019-02-26T07:21:16.833Z,0.39
2019-02-26T07:22:51.651Z,0.53
2019-02-26T07:24:27.189Z,0.69
2019-02-26T07:26:01.688Z,0.87
2019-02-26T07:27:36.077Z,1.03
2019-02-26T07:29:13.159Z,1.16
2019-02-26T07:30:47.458Z,1.31
2019-02-26T07:32:22.148Z,1.49
2019-02-26T07:33:58.223Z,1.56
2019-02-26T07:35:35.093Z,1.67
2019-02-26T07:37:11.588Z,1.50
2019-02-26T07:38:48.526Z,1.69
2019-02-26T07:40:21.235Z,1.86
2019-02-26T07:41:55.769Z,2.04
2019-02-26T07:43:31.474Z,2.15
2019-02-26T07:45:14.987Z,2.19
2019-02-26T07:46:44.859Z,2.26
2019-02-26T07:48:21.274Z,2.38
2019-02-26T07:49:58.620Z,2.52
2019-02-26T07:51:33.359Z,2.68
2019-02-26T07:53:07.339Z,2.84
2019-02-26T07:54:42.774Z,2.92
2019-02-26T07:56:17.969Z,3.12
2019-02-26T07:57:53.198Z,3.23
2019-02-26T07:59:28.007Z,3.41
2019-02-26T08:01:03.456Z,3.53
2019-02-26T08:02:37.876Z,3.67
2019-02-26T08:04:13.566Z,3.77
2019-02-26T08:05:48.022Z,3.83
2019-02-26T08:07:24.374Z,3.92
2019-02-26T08:08:58.469Z,4.10
2019-02-26T08:10:37.231Z,4.29
2019-02-26T08:12:11.375Z,4.18
2019-02-26T08:13:45.614Z,4.26
2019-02-26T08:15:20.085Z,4.25
2019-02-26T08:16:56.277Z,4.52
2019-02-26T08:18:30.345Z,4.48
2019-02-26T08:20:08.322Z,4.39
2019-02-26T08:21:45.447Z,4.55
2019-02-26T08:23:21.671Z,4.74
2019-02-26T08:24:57.912Z,4.87
2019-02-26T08:26:32.114Z,5.01
2019-02-26T08:28:06.552Z,5.16
2019-02-26T08:29:40.854Z,5.39
2019-02-26T08:31:17.526Z,5.59
2019-02-26T08:32:53.595Z,5.74
2019-02-26T08:34:27.318Z,5.85
2019-02-26T08:36:01.573Z,5.94
2019-02-26T08:37:35.788Z,5.86
2019-02-26T08:39:14.929Z,5.98
2019-02-26T08:40:46.447Z,6.10
2019-02-26T08:42:20.691Z,6.05
2019-02-26T08:43:56.501Z,6.15
2019-02-26T08:45:31.144Z,6.10
2019-02-26T08:47:08.804Z,6.20
2019-02-26T08:48:43.752Z,6.21
2019-02-26T08:50:17.803Z,6.06
2019-02-26T08:51:52.028Z,6.22
2019-02-26T08:53:28.812Z,6.33
2019-02-26T08:55:03.298Z,6.43
2019-02-26T08:56:38.785Z,6.63
2019-02-26T08:58:13.409Z,6.68
2019-02-26T08:59:49.567Z,6.72
2019-02-26T09:01:23.704Z,6.82
2019-02-26T09:02:57.988Z,6.98
2019-02-26T09:04:32.248Z,7.07
2019-02-26T09:06:13.145Z,7.18
2019-02-26T09:07:45.027Z,7.18
2019-02-26T09:09:21.012Z,7.21
2019-02-26T09:10:55.181Z,7.08
2019-02-26T09:12:29.701Z,7.00
2019-02-26T09:14:04.733Z,7.05
2019-02-26T09:15:41.397Z,7.05
2019-02-26T09:17:18.750Z,7.00
2019-02-26T09:18:52.131Z,7.07
2019-02-26T09:20:26.404Z,7.13
2019-02-26T09:22:00.701Z,7.17
2019-02-26T09:23:35.021Z,7.23
2019-02-26T09:25:11.563Z,7.20
2019-02-26T09:26:47.377Z,7.28
2019-02-26T09:28:22.410Z,7.30
2019-02-26T09:29:57.738Z,7.26
2019-02-26T09:31:32.111Z,7.23
2019-02-26T09:33:08.307Z,7.30
2019-02-26T09:34:41.805Z,7.37
2019-02-26T09:36:18.614Z,7.33
2019-02-26T09:37:53.281Z,7.40
2019-02-26T09:39:29.285Z,7.49
2019-02-26T09:41:03.434Z,7.54
2019-02-26T09:42:37.930Z,7.46
2019-02-26T09:44:11.887Z,7.43
2019-02-26T09:45:48.168Z,7.43
2019-02-26T09:47:25.996Z,7.43
2019-02-26T09:49:00.941Z,7.35
2019-02-26T09:50:36.796Z,7.34
2019-02-26T09:52:11.667Z,7.43
2019-02-26T09:53:47.189Z,7.49
2019-02-26T09:55:21.937Z,7.50
2019-02-26T09:56:56.639Z,7.52
2019-02-26T09:58:31.327Z,7.54
2019-02-26T10:00:22.897Z,7.61
2019-02-26T10:01:56.515Z,7.69
2019-02-26T10:03:36.580Z,7.74
2019-02-26T10:05:09.331Z,7.68
2019-02-26T10:06:44.948Z,7.67
2019-02-26T10:08:22.210Z,7.71
2019-02-26T10:09:56.724Z,7.76
2019-02-26T10:11:31.047Z,7.73
2019-02-26T10:13:05.272Z,7.66
2019-02-26T10:14:39.816Z,7.60
2019-02-26T10:16:14.302Z,7.56
2019-02-26T10:17:48.606Z,7.55
2019-02-26T10:19:22.896Z,7.64
2019-02-26T10:20:57.190Z,7.74
2019-02-26T10:22:33.301Z,7.84
2019-02-26T10:24:07.718Z,7.81
2019-02-26T10:25:42.069Z,7.90
2019-02-26T10:27:16.444Z,7.92
2019-02-26T10:28:57.555Z,7.94
2019-02-26T10:30:28.306Z,7.96
2019-02-26T10:32:03.249Z,7.97
2019-02-26T10:33:40.133Z,8.00
2019-02-26T10:35:16.547Z,8.02
2019-02-26T10:36:51.920Z,8.01
2019-02-26T10:38:29.626Z,8.03
2019-02-26T10:40:02.139Z,8.10
2019-02-26T10:41:37.530Z,8.15
2019-02-26T10:43:12.584Z,8.12
2019-02-26T10:44:46.868Z,8.12
2019-02-26T10:46:21.394Z,8.13
2019-02-26T10:47:56.920Z,8.20
2019-02-26T10:49:31.898Z,8.25
2019-02-26T10:51:07.196Z,8.30
2019-02-26T10:52:41.485Z,8.31
2019-02-26T10:54:17.955Z,8.36
2019-02-26T10:55:51.945Z,8.49
2019-02-26T10:57:28.887Z,8.59
2019-02-26T10:59:06.791Z,8.64
2019-02-26T11:00:40.275Z,8.66
2019-02-26T11:02:17.292Z,8.71
2019-02-26T11:03:52.871Z,8.75
2019-02-26T11:05:26.810Z,8.83
2019-02-26T11:07:02.383Z,8.87
2019-02-26T11:08:37.470Z,8.78
2019-02-26T11:10:14.602Z,8.77
2019-02-26T11:11:48.911Z,8.76
2019-02-26T11:13:25.618Z,8.77
2019-02-26T11:15:01.405Z,8.75
2019-02-26T11:16:38.499Z,8.83
2019-02-26T11:18:14.829Z,8.90
2019-02-26T11:19:48.038Z,8.98
2019-02-26T11:21:22.407Z,9.02
2019-02-26T11:22:56.713Z,9.08
2019-02-26T11:24:33.492Z,9.17
2019-02-26T11:26:09.624Z,9.23
2019-02-26T11:27:45.430Z,9.29
2019-02-26T11:29:18.676Z,9.29
2019-02-26T11:30:54.949Z,9.25
2019-02-26T11:32:30.199Z,9.23
2019-02-26T11:34:09.855Z,9.30
2019-02-26T11:35:44.349Z,9.36
2019-02-26T11:37:20.147Z,9.40
2019-02-26T11:38:54.767Z,9.43
2019-02-26T11:40:30.583Z,9.47
2019-02-26T11:42:05.014Z,9.55
2019-02-26T11:43:39.291Z,9.61
2019-02-26T11:45:21.529Z,9.58
2019-02-26T11:46:57.196Z,9.64
2019-02-26T11:48:33.220Z,9.66
2019-02-26T11:50:11.858Z,9.66
2019-02-26T11:51:46.463Z,9.49
2019-02-26T11:53:20.651Z,9.48
2019-02-26T11:54:56.293Z,9.48
2019-02-26T11:56:30.860Z,9.45
2019-02-26T11:58:07.750Z,9.45
2019-02-26T11:59:42.848Z,9.47
2019-02-26T12:01:17.394Z,9.51
2019-02-26T12:02:51.626Z,9.48
2019-02-26T12:04:26.255Z,9.53
2019-02-26T12:06:01.942Z,9.58
2019-02-26T12:07:38.071Z,9.57
2019-02-26T12:09:14.228Z,9.59
2019-02-26T12:10:48.367Z,9.65
2019-02-26T12:12:25.357Z,9.69
2019-02-26T12:13:59.259Z,9.72
2019-02-26T12:15:35.747Z,9.70
2019-02-26T12:17:09.646Z,9.62
2019-02-26T12:18:44.997Z,9.62
2019-02-26T12:20:21.875Z,9.61
2019-02-26T12:21:57.454Z,9.54
2019-02-26T12:23:34.330Z,9.51
2019-02-26T12:25:13.818Z,9.45
2019-02-26T12:26:49.870Z,9.38
2019-02-26T12:28:25.417Z,9.34
2019-02-26T12:30:00.010Z,9.32
2019-02-26T12:31:36.387Z,9.36
2019-02-26T12:33:12.461Z,9.33
2019-02-26T12:34:48.467Z,9.33
2019-02-26T12:36:23.662Z,9.31
2019-02-26T12:38:16.943Z,9.35
2019-02-26T12:39:35.384Z,9.36
2019-02-26T12:41:12.199Z,9.31
2019-02-26T12:42:45.650Z,9.29
2019-02-26T12:44:19.887Z,9.30
2019-02-26T12:45:56.096Z,9.28
2019-02-26T12:47:30.012Z,9.29
2019-02-26T12:49:05.796Z,9.27
2019-02-26T12:50:40.786Z,9.26
2019-02-26T12:52:16.066Z,9.23
2019-02-26T12:53:51.110Z,9.23
2019-02-26T12:55:29.560Z,9.26
2019-02-26T12:57:04.285Z,9.31
2019-02-26T12:58:38.176Z,9.39
2019-02-26T13:00:19.913Z,9.40
2019-02-26T13:01:54.949Z,9.46
2019-02-26T13:03:29.167Z,9.52
2019-02-26T13:05:06.557Z,9.50
2019-02-26T13:06:45.941Z,9.48
2019-02-26T13:08:20.547Z,9.41
2019-02-26T13:10:00.421Z,9.44
2019-02-26T13:11:31.683Z,9.49
2019-02-26T13:13:07.720Z,9.51
2019-02-26T13:14:42.046Z,9.58
2019-02-26T13:16:16.294Z,9.61
2019-02-26T13:17:54.331Z,9.66
2019-02-26T13:19:32.785Z,9.62
2019-02-26T13:21:03.861Z,9.60
2019-02-26T13:22:38.601Z,9.64
2019-02-26T13:24:17.559Z,9.62
2019-02-26T13:25:48.776Z,9.63
2019-02-26T13:27:23.249Z,9.65
2019-02-26T13:29:00.507Z,9.71
2019-02-26T13:30:33.532Z,9.69
2019-02-26T13:32:12.313Z,9.72
2019-02-26T13:33:43.888Z,9.75
2019-02-26T13:35:18.293Z,9.79
2019-02-26T13:36:56.461Z,9.82
2019-02-26T13:38:34.144Z,9.86
2019-02-26T13:40:07.974Z,9.89
2019-02-26T13:41:42.238Z,9.88
2019-02-26T13:43:16.522Z,9.88
2019-02-26T13:44:50.858Z,9.85
2019-02-26T13:46:25.386Z,9.77
2019-02-26T13:48:01.376Z,9.68
2019-02-26T13:49:35.532Z,9.60
2019-02-26T13:51:09.723Z,9.58
2019-02-26T13:52:44.705Z,9.60
2019-02-26T13:54:19.260Z,9.63
2019-02-26T13:55:53.822Z,9.65
2019-02-26T13:57:28.130Z,9.59
2019-02-26T13:59:02.949Z,9.57
2019-02-26T14:00:38.037Z,9.55
2019-02-26T14:02:12.295Z,9.53
2019-02-26T14:03:46.517Z,9.52
2019-02-26T14:05:21.024Z,9.43
2019-02-26T14:06:55.394Z,9.41
2019-02-26T14:08:29.602Z,9.35
2019-02-26T14:10:06.144Z,9.36
2019-02-26T14:11:40.968Z,9.37
2019-02-26T14:13:15.279Z,9.37
2019-02-26T14:14:50.486Z,9.37
2019-02-26T14:16:24.771Z,9.36
2019-02-26T14:17:59.209Z,9.32
2019-02-26T14:19:33.423Z,9.31
2019-02-26T14:21:07.730Z,9.35
2019-02-26T14:22:41.993Z,9.37
2019-02-26T14:24:16.440Z,9.31
2019-02-26T14:25:50.669Z,9.32
2019-02-26T14:27:24.991Z,9.32
2019-02-26T14:28:59.278Z,9.29
2019-02-26T14:30:34.003Z,9.29
2019-02-26T14:32:08.207Z,9.30
2019-02-26T14:33:42.497Z,9.30
2019-02-26T14:35:16.958Z,9.30
2019-02-26T14:36:51.547Z,9.30
2019-02-26T14:38:25.767Z,9.30
2019-02-26T14:39:59.988Z,9.30
2019-02-26T14:41:34.234Z,9.31
2019-02-26T14:43:08.990Z,9.29
2019-02-26T14:44:43.280Z,9.30
2019-02-26T14:46:17.505Z,9.31
2019-02-26T14:47:51.728Z,9.30
2019-02-26T14:49:26.337Z,9.28
2019-02-26T14:51:00.570Z,9.29
2019-02-26T14:52:34.797Z,9.26
2019-02-26T14:54:09.037Z,9.19
2019-02-26T14:55:43.591Z,9.20
2019-02-26T14:57:17.936Z,9.17
2019-02-26T14:58:52.425Z,9.17
2019-02-26T15:00:34.069Z,9.14
2019-02-26T15:02:08.507Z,9.11
2019-02-26T15:03:42.801Z,9.11
2019-02-26T15:05:17.314Z,9.05
2019-02-26T15:06:51.597Z,9.04
2019-02-26T15:08:26.144Z,9.00
2019-02-26T15:10:00.368Z,9.00
2019-02-26T15:11:34.721Z,8.96
2019-02-26T15:13:09.147Z,8.93
2019-02-26T15:14:44.179Z,8.92
2019-02-26T15:16:19.394Z,8.92
2019-02-26T15:17:53.831Z,8.89
2019-02-26T15:19:28.068Z,8.87
2019-02-26T15:21:03.002Z,8.83
2019-02-26T15:22:37.210Z,8.81
2019-02-26T15:24:11.524Z,8.77
2019-02-26T15:25:45.882Z,8.75
2019-02-26T15:27:20.341Z,8.74
2019-02-26T15:28:54.976Z,8.73
2019-02-26T15:30:29.256Z,6.82
2019-02-26T15:32:03.533Z,8.64
2019-02-26T15:33:38.666Z,8.62
2019-02-26T15:35:13.266Z,8.58
2019-02-26T15:36:47.914Z,8.57
2019-02-26T15:38:22.165Z,8.52
2019-02-26T15:39:56.714Z,8.53
2019-02-26T15:41:30.977Z,8.50
2019-02-26T15:43:05.247Z,8.46
2019-02-26T15:44:39.690Z,8.44
2019-02-26T15:46:14.075Z,8.39
2019-02-26T15:47:48.442Z,8.39
2019-02-26T15:49:22.747Z,8.39
2019-02-26T15:50:58.666Z,8.40
2019-02-26T15:52:33.820Z,8.37
2019-02-26T15:54:08.117Z,8.35
2019-02-26T15:55:42.437Z,8.32
2019-02-26T15:57:16.892Z,8.30
2019-02-26T15:58:51.466Z,8.30
2019-02-26T16:00:27.516Z,8.25
2019-02-26T16:02:01.690Z,8.23
2019-02-26T16:03:36.109Z,8.23
2019-02-26T16:05:11.682Z,8.18
2019-02-26T16:06:45.918Z,8.22
2019-02-26T16:08:20.505Z,8.19
2019-02-26T16:09:54.824Z,8.16
2019-02-26T16:11:29.330Z,8.13
2019-02-26T16:13:06.340Z,8.13
2019-02-26T16:14:40.556Z,8.10
2019-02-26T16:16:15.089Z,8.08
2019-02-26T16:17:49.661Z,8.09
2019-02-26T16:19:24.011Z,8.09
2019-02-26T16:20:58.314Z,8.06
2019-02-26T16:22:33.708Z,8.06
2019-02-26T16:24:10.476Z,8.04
2019-02-26T16:25:44.744Z,8.02
2019-02-26T16:27:19.788Z,7.97
2019-02-26T16:28:56.422Z,7.92
2019-02-26T16:30:31.012Z,7.91
2019-02-26T16:32:05.642Z,7.91
2019-02-26T16:33:39.981Z,7.89
2019-02-26T16:35:14.871Z,7.89
2019-02-26T16:36:49.266Z,7.84
2019-02-26T16:38:23.521Z,7.81
2019-02-26T16:40:00.467Z,7.80
2019-02-26T16:41:38.049Z,7.79
2019-02-26T16:43:14.863Z,7.74
2019-02-26T16:44:48.421Z,7.69
2019-02-26T16:46:22.674Z,7.69
2019-02-26T16:47:57.488Z,7.64
2019-02-26T16:49:32.178Z,7.65
2019-02-26T16:51:06.532Z,7.65
2019-02-26T16:52:40.756Z,7.60
2019-02-26T16:54:16.586Z,7.58
2019-02-26T16:55:51.632Z,7.55
2019-02-26T16:59:26.462Z,7.51
2019-02-26T17:01:01.009Z,7.49
2019-02-26T17:02:35.291Z,7.41
2019-02-26T17:04:09.593Z,7.44
2019-02-26T17:05:47.252Z,7.44
2019-02-26T17:07:20.003Z,7.44
2019-02-26T17:08:54.251Z,7.42
2019-02-26T17:10:30.237Z,7.37
2019-02-26T17:12:05.025Z,7.36
2019-02-26T17:13:42.691Z,7.37
2019-02-26T17:15:27.166Z,7.36
2019-02-26T17:17:01.547Z,7.37
2019-02-26T17:18:37.405Z,7.33
2019-02-26T17:20:12.087Z,7.35
2019-02-26T17:21:49.959Z,7.34
2019-02-26T17:23:23.514Z,7.33
2019-02-26T17:24:57.808Z,7.34
2019-02-26T17:26:33.337Z,7.30
2019-02-26T17:28:09.471Z,7.31
2019-02-26T17:29:43.722Z,7.30
2019-02-26T17:31:18.108Z,7.25
2019-02-26T17:32:52.730Z,7.23
2019-02-26T17:34:26.972Z,7.21
2019-02-26T17:36:02.009Z,7.24
2019-02-26T17:37:36.893Z,7.23
2019-02-26T17:39:12.097Z,7.24
2019-02-26T17:40:46.339Z,7.18
2019-02-26T17:42:20.695Z,7.16
2019-02-26T17:43:56.829Z,7.19
2019-02-26T17:45:34.916Z,7.18
2019-02-26T17:47:09.664Z,7.20
2019-02-26T17:48:43.943Z,7.17
2019-02-26T17:50:21.293Z,7.18
2019-02-26T17:51:56.315Z,7.15
2019-02-26T17:53:30.604Z,7.15
2019-02-26T17:55:09.208Z,7.17
2019-02-26T17:56:43.664Z,7.16
2019-02-26T17:58:19.527Z,7.16
2019-02-26T17:59:53.786Z,7.11
2019-02-26T18:01:28.517Z,7.11
2019-02-26T18:03:06.462Z,7.09
2019-02-26T18:04:38.513Z,7.00
2019-02-26T18:06:13.165Z,7.04
2019-02-26T18:07:47.447Z,7.04
2019-02-26T18:09:21.710Z,6.96
2019-02-26T18:10:56.054Z,6.91
2019-02-26T18:12:30.341Z,6.88
2019-02-26T18:14:04.913Z,6.90
2019-02-26T18:15:39.181Z,6.74
2019-02-26T18:17:14.222Z,6.89
2019-02-26T18:18:48.416Z,6.79
2019-02-26T18:20:28.048Z,6.80
2019-02-26T18:21:59.618Z,6.76
2019-02-26T18:23:37.536Z,6.77
2019-02-26T18:25:21.315Z,6.72
2019-02-26T18:26:55.618Z,6.67
2019-02-26T18:28:30.493Z,6.69
2019-02-26T18:30:10.819Z,6.66
2019-02-26T18:31:46.698Z,6.67
2019-02-26T18:33:20.990Z,6.58
2019-02-26T18:34:55.215Z,6.59
2019-02-26T18:36:29.723Z,6.57
2019-02-26T18:38:04.019Z,6.55
2019-02-26T18:39:38.334Z,6.54
2019-02-26T18:41:12.592Z,6.52
2019-02-26T18:42:47.763Z,6.51
2019-02-26T18:44:22.097Z,6.49
2019-02-26T18:45:58.728Z,6.48
2019-02-26T18:47:32.734Z,6.47
2019-02-26T18:49:07.693Z,6.43
2019-02-26T18:50:41.893Z,6.39
2019-02-26T18:52:16.121Z,6.34
2019-02-26T18:53:50.400Z,6.36
2019-02-26T18:55:28.357Z,6.36
2019-02-26T18:57:02.274Z,6.32
2019-02-26T18:58:36.602Z,6.33
2019-02-26T19:00:13.968Z,6.31
2019-02-26T19:01:48.620Z,6.31
2019-02-26T19:03:24.916Z,6.28
2019-02-26T19:04:58.875Z,6.27
2019-02-26T19:06:33.066Z,6.26
2019-02-26T19:08:07.713Z,6.20
2019-02-26T19:09:42.713Z,6.18
2019-02-26T19:11:17.793Z,6.18
2019-02-26T19:12:52.027Z,6.16
2019-02-26T19:14:26.667Z,6.16
2019-02-26T19:16:00.898Z,6.14
2019-02-26T19:17:35.120Z,6.15
2019-02-26T19:19:09.761Z,6.12
2019-02-26T19:20:48.797Z,6.12
2019-02-26T19:22:20.493Z,6.11
2019-02-26T19:23:54.789Z,6.12
2019-02-26T19:25:29.101Z,6.15
2019-02-26T19:27:03.753Z,6.16
2019-02-26T19:28:37.990Z,6.14
2019-02-26T19:30:14.711Z,6.17
2019-02-26T19:31:49.022Z,6.18
2019-02-26T19:33:23.636Z,6.17
2019-02-26T19:34:58.709Z,6.17
2019-02-26T19:36:33.707Z,6.17
2019-02-26T19:38:08.009Z,6.17
2019-02-26T19:39:42.440Z,6.20
2019-02-26T19:41:16.648Z,6.15
2019-02-26T19:42:52.886Z,6.19
2019-02-26T19:44:26.812Z,6.23
2019-02-26T19:46:02.252Z,6.25
2019-02-26T19:47:36.649Z,6.22
2019-02-26T19:49:10.864Z,6.25
2019-02-26T19:50:47.892Z,6.25
2019-02-26T19:52:21.526Z,6.26
2019-02-26T19:53:55.890Z,6.25
2019-02-26T19:55:33.277Z,6.25
2019-02-26T19:57:07.555Z,6.23
2019-02-26T19:58:42.135Z,6.21
2019-02-26T20:00:19.701Z,6.20
2019-02-26T20:01:53.529Z,6.18
2019-02-26T20:03:39.088Z,6.18
2019-02-26T20:05:09.511Z,6.17
2019-02-26T20:06:43.337Z,6.18
2019-02-26T20:08:17.574Z,6.15
2019-02-26T20:09:51.889Z,6.16
2019-02-26T20:11:26.767Z,6.16
2019-02-26T20:13:01.674Z,6.16
2019-02-26T20:14:36.353Z,6.15
2019-02-26T20:16:10.665Z,6.13
2019-02-26T20:17:48.869Z,6.11
2019-02-26T20:19:21.708Z,6.11
2019-02-26T20:20:56.079Z,6.14
2019-02-26T20:22:33.327Z,6.14
2019-02-26T20:24:06.479Z,6.12
2019-02-26T20:25:42.757Z,6.14
2019-02-26T20:27:16.652Z,6.16
2019-02-26T20:28:50.934Z,6.17
2019-02-26T20:30:25.765Z,6.16
2019-02-26T20:32:00.070Z,6.17
2019-02-26T20:33:34.328Z,6.16
2019-02-26T20:35:12.015Z,6.13
2019-02-26T20:36:48.855Z,6.13
2019-02-26T20:38:22.999Z,6.13
2019-02-26T20:39:57.212Z,6.14
2019-02-26T20:41:33.131Z,6.13
2019-02-26T20:43:07.604Z,6.12
2019-02-26T20:44:45.243Z,6.13
2019-02-26T20:46:18.573Z,6.13
2019-02-26T20:47:52.918Z,6.15
2019-02-26T20:49:28.022Z,6.17
2019-02-26T20:51:02.317Z,6.20
2019-02-26T20:52:36.626Z,6.18
2019-02-26T20:54:11.601Z,6.18
2019-02-26T20:55:52.397Z,6.17